createdAt,value
2018-06-11T00:00:41.005Z,3.10
2018-06-11T00:03:08.392Z,3.73
2018-06-11T00:05:35.765Z,3.27
2018-06-11T00:08:03.259Z,3.40
2018-06-11T00:10:30.655Z,3.47
2018-06-11T00:12:58.047Z,3.03
2018-06-11T00:15:25.471Z,3.13
2018-06-11T00:17:53.458Z,3.33
2018-06-11T00:20:21.024Z,3.03
2018-06-11T00:22:48.403Z,3.13
2018-06-11T00:25:16.499Z,3.17
2018-06-11T00:27:43.983Z,3.07
2018-06-11T00:30:11.435Z,3.43
2018-06-11T00:32:38.838Z,3.10
2018-06-11T00:35:06.215Z,3.20
2018-06-11T00:37:33.622Z,3.30
2018-06-11T00:40:00.998Z,3.50
2018-06-11T00:42:28.639Z,3.23
2018-06-11T00:44:56.166Z,3.40
2018-06-11T00:47:24.185Z,3.30
2018-06-11T00:49:51.602Z,3.30
2018-06-11T00:52:19.015Z,3.70
2018-06-11T00:54:46.391Z,3.57
2018-06-11T00:57:13.803Z,3.43
2018-06-11T00:59:41.447Z,3.43
2018-06-11T01:02:08.925Z,3.30
2018-06-11T01:04:36.347Z,3.50
2018-06-11T01:07:03.748Z,3.40
2018-06-11T01:09:31.354Z,3.10
2018-06-11T01:11:58.716Z,3.70
2018-06-11T01:14:26.180Z,3.60
2018-06-11T01:16:53.570Z,3.70
2018-06-11T01:19:21.092Z,3.50
2018-06-11T01:21:49.186Z,3.80
2018-06-11T01:24:16.579Z,3.87
2018-06-11T01:26:44.091Z,3.40
2018-06-11T01:29:11.619Z,3.47
2018-06-11T01:31:39.003Z,3.57
2018-06-11T01:34:06.459Z,3.73
2018-06-11T01:36:33.908Z,3.37
2018-06-11T01:39:01.387Z,3.80
2018-06-11T01:41:28.771Z,3.10
2018-06-11T01:43:56.175Z,3.80
2018-06-11T01:46:23.559Z,3.60
2018-06-11T01:48:50.968Z,3.80
2018-06-11T01:51:18.372Z,4.10
2018-06-11T01:53:45.814Z,3.57
2018-06-11T01:56:13.267Z,3.70
2018-06-11T01:58:40.723Z,3.90
2018-06-11T02:01:08.822Z,3.80
2018-06-11T02:03:36.883Z,3.40
2018-06-11T02:06:04.323Z,4.03
2018-06-11T02:08:31.763Z,3.10
2018-06-11T02:11:00.145Z,3.80
2018-06-11T02:13:27.599Z,3.20
2018-06-11T02:15:56.335Z,3.90
2018-06-11T02:18:23.715Z,3.33
2018-06-11T02:20:51.203Z,3.60
2018-06-11T02:23:18.579Z,3.43
2018-06-11T02:25:46.204Z,3.17
2018-06-11T02:28:13.903Z,3.13
2018-06-11T02:30:41.331Z,3.50
2018-06-11T02:33:08.731Z,3.60
2018-06-11T02:35:36.253Z,3.90
2018-06-11T02:38:04.323Z,3.57
2018-06-11T02:40:31.807Z,3.27
2018-06-11T02:42:59.204Z,3.87
2018-06-11T02:45:26.691Z,3.77
2018-06-11T02:47:54.060Z,3.30
2018-06-11T02:50:22.104Z,3.37
2018-06-11T02:52:49.699Z,3.20
2018-06-11T02:55:17.147Z,3.50
2018-06-11T02:57:44.603Z,3.20
2018-06-11T03:00:12.357Z,3.40
2018-06-11T03:02:40.430Z,3.40
2018-06-11T03:05:07.900Z,3.30
2018-06-11T03:07:35.352Z,3.47
2018-06-11T03:10:02.831Z,3.70
2018-06-11T03:12:30.244Z,3.73
2018-06-11T03:14:57.716Z,3.37
2018-06-11T03:17:25.100Z,3.70
2018-06-11T03:19:52.652Z,3.47
2018-06-11T03:22:20.195Z,3.30
2018-06-11T03:24:47.577Z,3.53
2018-06-11T03:27:15.000Z,3.30
2018-06-11T03:29:42.375Z,4.03
2018-06-11T03:32:09.767Z,3.30
2018-06-11T03:34:37.374Z,3.70
2018-06-11T03:37:04.816Z,3.20
2018-06-11T03:39:32.223Z,3.50
2018-06-11T03:41:59.748Z,3.57
2018-06-11T03:44:27.195Z,3.73
2018-06-11T03:46:54.653Z,3.60
2018-06-11T03:49:22.107Z,4.00
2018-06-11T03:51:49.683Z,4.03
2018-06-11T03:54:17.063Z,3.47
2018-06-11T03:56:44.445Z,3.50
2018-06-11T03:59:11.827Z,4.00
2018-06-11T04:01:39.211Z,3.97
2018-06-11T04:04:06.875Z,3.40
2018-06-11T04:06:34.343Z,3.67
2018-06-11T04:09:01.744Z,4.00
2018-06-11T04:11:29.128Z,4.17
2018-06-11T04:13:56.687Z,3.33
2018-06-11T04:16:24.159Z,4.20
2018-06-11T04:18:51.591Z,3.70
2018-06-11T04:21:18.971Z,3.63
2018-06-11T04:23:46.401Z,3.87
2018-06-11T04:26:14.575Z,3.63
2018-06-11T04:28:42.567Z,3.77
2018-06-11T04:31:10.100Z,4.43
2018-06-11T04:33:37.499Z,4.27
2018-06-11T04:36:05.658Z,4.40
2018-06-11T04:38:33.054Z,4.63
2018-06-11T04:41:00.483Z,4.40
2018-06-11T04:43:29.535Z,4.50
2018-06-11T04:45:58.260Z,4.40
2018-06-11T04:48:25.747Z,4.73
2018-06-11T04:50:54.260Z,4.77
2018-06-11T04:53:23.490Z,5.20
2018-06-11T04:55:51.179Z,4.80
2018-06-11T04:58:19.804Z,5.07
2018-06-11T05:00:47.351Z,5.20
2018-06-11T05:03:14.775Z,5.57
2018-06-11T05:05:43.131Z,5.73
2018-06-11T05:08:11.130Z,5.50
2018-06-11T05:10:38.580Z,5.70
2018-06-11T05:13:06.152Z,5.60
2018-06-11T05:15:34.128Z,5.50
2018-06-11T05:18:01.732Z,5.70
2018-06-11T05:20:29.759Z,5.80
2018-06-11T05:22:58.265Z,5.50
2018-06-11T05:25:26.865Z,6.23
2018-06-11T05:27:54.731Z,5.73
2018-06-11T05:30:22.465Z,5.70
2018-06-11T05:32:49.899Z,5.80
2018-06-11T05:35:17.558Z,5.80
2018-06-11T05:37:44.996Z,5.77
2018-06-11T05:40:13.239Z,6.20
2018-06-11T05:42:40.647Z,5.87
2018-06-11T05:45:08.063Z,6.47
2018-06-11T05:47:35.562Z,6.30
2018-06-11T05:50:03.252Z,6.43
2018-06-11T05:52:30.783Z,5.90
2018-06-11T05:54:58.192Z,6.50
2018-06-11T05:57:26.615Z,7.13
2018-06-11T05:59:54.312Z,6.93
2018-06-11T06:02:22.715Z,7.23
2018-06-11T06:04:50.231Z,7.30
2018-06-11T06:07:17.704Z,7.57
2018-06-11T06:09:45.131Z,7.90
2018-06-11T06:12:12.727Z,8.17
2018-06-11T06:14:40.099Z,6.93
2018-06-11T06:17:08.435Z,7.80
2018-06-11T06:19:35.885Z,7.27
2018-06-11T06:22:03.369Z,7.90
2018-06-11T06:24:32.069Z,7.70
2018-06-11T06:27:00.120Z,7.40
2018-06-11T06:29:27.607Z,7.37
2018-06-11T06:31:55.079Z,8.13
2018-06-11T06:34:22.847Z,8.10
2018-06-11T06:36:51.567Z,7.57
2018-06-11T06:39:18.996Z,7.47
2018-06-11T06:41:46.396Z,7.40
2018-06-11T06:44:13.795Z,7.83
2018-06-11T06:46:41.179Z,7.80
2018-06-11T06:49:08.575Z,7.10
2018-06-11T06:51:37.558Z,7.83
2018-06-11T06:54:05.259Z,7.63
2018-06-11T06:56:32.695Z,7.27
2018-06-11T06:59:00.060Z,7.80
2018-06-11T07:01:27.689Z,7.30
2018-06-11T07:03:55.110Z,7.30
2018-06-11T07:06:22.604Z,7.23
2018-06-11T07:08:50.061Z,7.30
2018-06-11T07:11:17.443Z,6.63
2018-06-11T07:13:45.041Z,6.77
2018-06-11T07:16:12.413Z,7.20
2018-06-11T07:18:39.885Z,6.87
2018-06-11T07:21:07.279Z,6.50
2018-06-11T07:23:34.687Z,6.67
2018-06-11T07:26:02.260Z,6.40
2018-06-11T07:28:29.797Z,6.30
2018-06-11T07:30:57.172Z,6.10
2018-06-11T07:33:24.631Z,6.70
2018-06-11T07:35:52.030Z,6.17
2018-06-11T07:38:19.423Z,6.03
2018-06-11T07:40:46.843Z,6.33
2018-06-11T07:43:14.463Z,6.30
2018-06-11T07:45:41.919Z,6.53
2018-06-11T07:48:09.382Z,6.53
2018-06-11T07:50:37.576Z,6.80
2018-06-11T07:53:05.227Z,6.50
2018-06-11T07:55:32.639Z,6.57
2018-06-11T07:58:00.132Z,6.50
2018-06-11T08:00:28.487Z,6.10
2018-06-11T08:02:56.034Z,5.90
2018-06-11T08:05:23.463Z,6.07
2018-06-11T08:07:50.859Z,6.10
2018-06-11T08:10:18.323Z,5.53
2018-06-11T08:12:45.692Z,5.17
2018-06-11T08:15:13.071Z,5.53
2018-06-11T08:17:40.496Z,4.83
2018-06-11T08:20:08.157Z,4.73
2018-06-11T08:22:35.543Z,4.93
2018-06-11T08:25:02.944Z,5.50
2018-06-11T08:27:30.596Z,5.20
2018-06-11T08:29:58.031Z,4.90
2018-06-11T08:32:25.459Z,4.80
2018-06-11T08:34:52.891Z,5.47
2018-06-11T08:37:20.302Z,5.87
2018-06-11T08:39:47.675Z,5.70
2018-06-11T08:42:15.077Z,5.50
2018-06-11T08:44:43.026Z,5.00
2018-06-11T08:47:10.419Z,5.00
2018-06-11T08:49:37.799Z,5.40
2018-06-11T08:52:05.394Z,5.10
2018-06-11T08:54:32.803Z,5.93
2018-06-11T08:57:00.316Z,5.97
2018-06-11T08:59:28.376Z,5.60
2018-06-11T09:01:55.756Z,6.23
2018-06-11T09:04:23.288Z,6.70
2018-06-11T09:06:50.768Z,6.87
2018-06-11T09:09:18.288Z,7.20
2018-06-11T09:11:45.659Z,6.80
2018-06-11T09:14:13.056Z,6.63
2018-06-11T09:16:40.485Z,6.90
2018-06-11T09:19:08.553Z,6.27
2018-06-11T09:21:36.027Z,6.50
2018-06-11T09:24:03.471Z,6.47
2018-06-11T09:26:30.879Z,6.63
2018-06-11T09:29:01.916Z,6.20
2018-06-11T09:31:29.359Z,6.90
2018-06-11T09:33:56.813Z,6.20
2018-06-11T09:36:24.216Z,6.17
2018-06-11T09:38:51.639Z,6.53
2018-06-11T09:41:19.044Z,6.43
2018-06-11T09:43:46.471Z,5.93
2018-06-11T09:46:14.759Z,5.67
2018-06-11T09:48:42.309Z,5.80
2018-06-11T09:51:10.490Z,5.87
2018-06-11T09:53:38.078Z,5.60
2018-06-11T09:56:05.527Z,5.73
2018-06-11T09:58:32.911Z,5.47
2018-06-11T10:01:00.368Z,6.07
2018-06-11T10:03:29.261Z,6.10
2018-06-11T10:05:57.443Z,6.00
2018-06-11T10:08:24.946Z,5.73
2018-06-11T10:10:52.404Z,5.70
2018-06-11T10:13:19.859Z,6.33
2018-06-11T10:15:47.319Z,5.70
2018-06-11T10:18:14.803Z,6.30
2018-06-11T10:20:42.235Z,5.90
2018-06-11T10:23:09.641Z,6.00
2018-06-11T10:25:37.015Z,5.73
2018-06-11T10:28:04.534Z,6.73
2018-06-11T10:30:32.719Z,5.90
2018-06-11T10:33:00.135Z,5.83
2018-06-11T10:35:27.517Z,6.13
2018-06-11T10:37:54.907Z,5.70
2018-06-11T10:40:22.307Z,6.20
2018-06-11T10:42:49.715Z,5.53
2018-06-11T10:45:17.111Z,5.63
2018-06-11T10:47:44.567Z,5.17
2018-06-11T10:50:11.943Z,5.13
2018-06-11T10:52:39.315Z,5.47
2018-06-11T10:55:07.586Z,5.60
2018-06-11T10:57:34.992Z,6.10
2018-06-11T11:00:02.580Z,5.30
2018-06-11T11:02:30.023Z,5.97
2018-06-11T11:04:57.494Z,5.60
2018-06-11T11:07:24.987Z,5.63
2018-06-11T11:09:53.143Z,5.77
2018-06-11T11:12:20.617Z,5.73
2018-06-11T11:14:48.251Z,5.33
2018-06-11T11:17:15.697Z,5.35
2018-06-11T11:19:43.170Z,5.47
2018-06-11T11:22:10.603Z,5.10
2018-06-11T11:24:38.067Z,5.30
2018-06-11T11:27:05.560Z,4.80
2018-06-11T11:29:34.887Z,5.35
2018-06-11T11:32:05.552Z,5.78
2018-06-11T11:34:33.738Z,5.45
2018-06-11T11:37:01.190Z,5.55
2018-06-11T11:39:28.582Z,5.50
2018-06-11T11:41:56.116Z,6.10
2018-06-11T11:44:23.575Z,6.17
2018-06-11T11:46:51.048Z,6.80
2018-06-11T11:49:18.481Z,6.33
2018-06-11T11:51:45.919Z,6.23
2018-06-11T11:54:13.468Z,6.30
2018-06-11T11:56:41.231Z,6.10
2018-06-11T11:59:09.212Z,5.92
2018-06-11T12:01:36.696Z,6.05
2018-06-11T12:04:04.128Z,6.30
2018-06-11T12:06:31.696Z,6.60
2018-06-11T12:08:59.139Z,6.97
2018-06-11T12:11:26.600Z,6.87
2018-06-11T12:13:54.681Z,6.87
2018-06-11T12:16:22.097Z,7.30
2018-06-11T12:18:49.496Z,6.90
2018-06-11T12:21:16.904Z,7.23
2018-06-11T12:23:44.515Z,6.93
2018-06-11T12:26:11.944Z,7.13
2018-06-11T12:28:39.425Z,7.40
2018-06-11T12:31:06.871Z,7.50
2018-06-11T12:33:34.347Z,7.40
2018-06-11T12:36:01.875Z,7.63
2018-06-11T12:38:30.500Z,8.00
2018-06-11T12:40:58.003Z,7.83
2018-06-11T12:43:25.467Z,7.93
2018-06-11T12:45:52.936Z,8.07
2018-06-11T12:48:20.350Z,8.33
2018-06-11T12:50:47.747Z,8.17
2018-06-11T12:53:15.271Z,8.63
2018-06-11T12:55:42.655Z,8.37
2018-06-11T12:58:10.211Z,7.60
2018-06-11T13:00:37.600Z,7.73
2018-06-11T13:03:05.144Z,7.50
2018-06-11T13:05:32.572Z,7.77
2018-06-11T13:08:00.015Z,7.33
2018-06-11T13:10:27.471Z,6.83
2018-06-11T13:12:54.937Z,6.70
2018-06-11T13:15:22.350Z,6.97
2018-06-11T13:17:49.732Z,7.27
2018-06-11T13:20:17.851Z,6.83
2018-06-11T13:22:45.407Z,6.87
2018-06-11T13:25:12.848Z,6.40
2018-06-11T13:27:40.224Z,6.30
2018-06-11T13:30:07.834Z,6.37
2018-06-11T13:32:36.379Z,6.10
2018-06-11T13:35:03.840Z,5.87
2018-06-11T13:37:31.267Z,5.77
2018-06-11T13:39:59.375Z,5.83
2018-06-11T13:42:26.753Z,5.40
2018-06-11T13:44:54.327Z,5.73
2018-06-11T13:47:21.779Z,5.30
2018-06-11T13:49:49.244Z,5.97
2018-06-11T13:52:16.655Z,6.10
2018-06-11T13:54:44.208Z,5.67
2018-06-11T13:57:11.579Z,5.70
2018-06-11T13:59:39.469Z,5.60
2018-06-11T14:02:06.925Z,5.70
2018-06-11T14:04:35.037Z,5.50
2018-06-11T14:07:02.435Z,5.33
2018-06-11T14:09:29.825Z,4.80
2018-06-11T14:11:57.307Z,5.17
2018-06-11T14:14:24.743Z,4.73
2018-06-11T14:16:52.198Z,5.17
2018-06-11T14:19:19.641Z,5.00
2018-06-11T14:21:47.000Z,5.33
2018-06-11T14:24:14.581Z,5.20
2018-06-11T14:26:42.968Z,4.80
2018-06-11T14:29:10.358Z,4.90
2018-06-11T14:31:37.871Z,4.87
2018-06-11T14:34:05.550Z,4.87
2018-06-11T14:36:33.476Z,4.73
2018-06-11T14:39:01.158Z,4.63
2018-06-11T14:41:28.535Z,4.80
2018-06-11T14:43:56.210Z,5.37
2018-06-11T14:46:24.209Z,5.00
2018-06-11T14:48:52.195Z,5.30
2018-06-11T14:51:19.589Z,4.73
2018-06-11T14:53:46.979Z,5.13
2018-06-11T14:56:14.363Z,5.20
2018-06-11T14:58:41.749Z,5.57
2018-06-11T15:01:10.195Z,5.40
2018-06-11T15:03:37.621Z,5.17
2018-06-11T15:06:05.029Z,4.90
2018-06-11T15:08:32.483Z,5.17
2018-06-11T15:10:59.961Z,5.13
2018-06-11T15:13:28.336Z,5.53
2018-06-11T15:15:55.772Z,5.30
2018-06-11T15:18:23.168Z,5.37
2018-06-11T15:20:50.689Z,5.30
2018-06-11T15:23:18.163Z,4.70
2018-06-11T15:25:45.599Z,5.40
2018-06-11T15:28:13.012Z,5.70
2018-06-11T15:30:40.627Z,5.27
2018-06-11T15:33:08.543Z,5.00
2018-06-11T15:35:35.944Z,4.90
2018-06-11T15:38:03.342Z,5.27
2018-06-11T15:40:30.729Z,5.00
2018-06-11T15:42:58.259Z,5.07
2018-06-11T15:45:26.527Z,5.33
2018-06-11T15:47:54.127Z,5.37
2018-06-11T15:50:21.499Z,5.20
2018-06-11T15:52:49.183Z,4.83
2018-06-11T15:55:16.572Z,4.80
2018-06-11T15:57:43.973Z,5.00
2018-06-11T16:00:11.447Z,4.90
2018-06-11T16:02:38.832Z,5.10
2018-06-11T16:05:06.289Z,4.77
2018-06-11T16:07:33.671Z,5.00
2018-06-11T16:10:01.073Z,5.10
2018-06-11T16:12:28.631Z,5.03
2018-06-11T16:14:56.161Z,4.77
2018-06-11T16:17:23.924Z,5.30
2018-06-11T16:19:51.351Z,4.83
2018-06-11T16:22:18.763Z,4.80
2018-06-11T16:24:46.835Z,4.80
2018-06-11T16:27:14.743Z,4.93
2018-06-11T16:29:43.595Z,4.83
2018-06-11T16:32:12.554Z,5.10
2018-06-11T16:34:40.473Z,5.47
2018-06-11T16:37:08.233Z,5.40
2018-06-11T16:39:37.215Z,4.90
2018-06-11T16:42:04.901Z,6.10
2018-06-11T16:44:32.420Z,4.97
2018-06-11T16:47:00.036Z,5.07
2018-06-11T16:49:28.475Z,4.70
2018-06-11T16:51:56.699Z,4.93
2018-06-11T16:54:26.527Z,4.87
2018-06-11T16:56:54.089Z,4.90
2018-06-11T16:59:21.751Z,4.80
2018-06-11T17:01:49.489Z,4.40
2018-06-11T17:04:16.958Z,4.97
2018-06-11T17:06:45.927Z,4.67
2018-06-11T17:09:14.659Z,5.03
2018-06-11T17:11:42.855Z,4.70
2018-06-11T17:14:10.303Z,4.20
2018-06-11T17:16:37.736Z,4.57
2018-06-11T17:19:05.920Z,4.20
2018-06-11T17:21:33.373Z,4.03
2018-06-11T17:24:00.871Z,3.93
2018-06-11T17:26:28.561Z,3.67
2018-06-11T17:28:56.208Z,3.50
2018-06-11T17:31:23.782Z,3.50
2018-06-11T17:33:51.472Z,3.47
2018-06-11T17:36:18.929Z,3.43
2018-06-11T17:38:46.695Z,3.33
2018-06-11T17:41:15.582Z,3.13
2018-06-11T17:43:42.995Z,3.23
2018-06-11T17:46:10.516Z,3.30
2018-06-11T17:48:38.342Z,3.17
2018-06-11T17:51:06.077Z,3.10
2018-06-11T17:53:33.551Z,3.27
2018-06-11T17:56:00.970Z,3.30
2018-06-11T17:58:28.405Z,3.17
2018-06-11T18:00:56.253Z,3.43
2018-06-11T18:03:23.752Z,3.27
2018-06-11T18:05:51.862Z,3.70
2018-06-11T18:08:19.325Z,3.37
2018-06-11T18:10:47.347Z,3.60
2018-06-11T18:13:14.982Z,3.47
2018-06-11T18:15:42.506Z,3.50
2018-06-11T18:18:09.992Z,3.53
2018-06-11T18:20:37.431Z,3.30
2018-06-11T18:23:06.387Z,4.00
2018-06-11T18:25:42.730Z,3.40
2018-06-11T18:28:14.296Z,3.63
2018-06-11T18:30:44.521Z,3.40
2018-06-11T18:33:14.396Z,3.77
2018-06-11T18:35:44.372Z,3.50
2018-06-11T18:38:15.624Z,3.67
2018-06-11T18:40:46.153Z,3.47
2018-06-11T18:43:16.400Z,3.70
2018-06-11T18:45:46.559Z,3.30
2018-06-11T18:48:16.496Z,3.40
2018-06-11T18:50:46.772Z,3.50
2018-06-11T18:53:18.232Z,3.57
2018-06-11T18:55:48.700Z,3.40
2018-06-11T18:58:19.061Z,4.00
2018-06-11T19:00:49.701Z,3.47
2018-06-11T19:03:17.955Z,6.80
2018-06-11T19:05:45.596Z,8.00
2018-06-11T19:08:13.495Z,8.50
2018-06-11T19:10:41.106Z,9.23
2018-06-11T19:13:08.632Z,9.83
2018-06-11T19:15:36.219Z,9.03
2018-06-11T19:18:04.107Z,9.63
2018-06-11T19:20:32.183Z,9.93
2018-06-11T19:22:59.689Z,9.77
2018-06-11T19:25:27.169Z,10.17
2018-06-11T19:27:55.216Z,9.63
2018-06-11T19:30:22.635Z,10.17
2018-06-11T19:32:50.131Z,9.67
2018-06-11T19:35:17.620Z,10.07
2018-06-11T19:37:45.352Z,10.47
2018-06-11T19:40:12.781Z,9.93
2018-06-11T19:42:40.293Z,10.17
2018-06-11T19:45:07.785Z,10.20
2018-06-11T19:47:35.235Z,10.47
2018-06-11T19:50:02.780Z,10.33
2018-06-11T19:52:30.188Z,9.80
2018-06-11T19:54:58.452Z,9.57
2018-06-11T19:57:26.499Z,9.77
2018-06-11T19:59:54.680Z,9.80
2018-06-11T20:02:22.089Z,9.33
2018-06-11T20:04:49.478Z,9.50
2018-06-11T20:07:16.960Z,9.40
2018-06-11T20:09:44.754Z,8.53
2018-06-11T20:12:12.493Z,8.57
2018-06-11T20:14:39.926Z,8.33
2018-06-11T20:17:07.348Z,8.70
2018-06-11T20:19:35.762Z,8.70
2018-06-11T20:22:03.201Z,6.47
2018-06-11T20:24:30.722Z,5.70
2018-06-11T20:26:58.812Z,7.90
2018-06-11T20:29:26.200Z,5.13
2018-06-11T20:31:54.104Z,8.07
2018-06-11T20:34:21.620Z,6.67
2018-06-11T20:36:49.080Z,6.97
2018-06-11T20:39:16.537Z,7.10
2018-06-11T20:41:43.919Z,6.97
2018-06-11T20:44:11.463Z,6.77
2018-06-11T20:46:38.851Z,8.87
2018-06-11T20:49:06.295Z,8.37
2018-06-11T20:51:33.687Z,9.90
2018-06-11T20:54:01.092Z,10.23
2018-06-11T20:56:28.733Z,8.87
2018-06-11T20:58:56.123Z,7.70
2018-06-11T21:01:24.228Z,8.47
2018-06-11T21:03:51.632Z,7.93
2018-06-11T21:06:19.186Z,7.93
2018-06-11T21:08:46.615Z,10.83
2018-06-11T21:11:14.064Z,12.90
2018-06-11T21:13:41.631Z,15.50
2018-06-11T21:16:09.036Z,12.70
2018-06-11T21:18:36.681Z,10.63
2018-06-11T21:21:04.106Z,12.87
2018-06-11T21:23:32.320Z,9.40
2018-06-11T21:25:59.967Z,11.80
2018-06-11T21:28:27.358Z,9.87
2018-06-11T21:30:54.930Z,10.70
2018-06-11T21:33:22.595Z,8.00
2018-06-11T21:35:50.048Z,9.30
2018-06-11T21:38:17.611Z,9.67
2018-06-11T21:40:45.274Z,13.73
2018-06-11T21:43:12.700Z,9.27
2018-06-11T21:45:40.128Z,6.73
2018-06-11T21:48:07.555Z,5.40
2018-06-11T21:50:34.944Z,5.97
2018-06-11T21:53:02.485Z,5.43
2018-06-11T21:55:29.887Z,6.10
2018-06-11T21:57:57.409Z,5.30
2018-06-11T22:00:24.926Z,5.80
2018-06-11T22:02:52.647Z,5.63
2018-06-11T22:05:20.046Z,5.50
2018-06-11T22:07:47.424Z,5.47
2018-06-11T22:10:14.845Z,6.67
2018-06-11T22:12:42.439Z,6.17
2018-06-11T22:15:09.835Z,6.17
2018-06-11T22:17:37.843Z,7.43
2018-06-11T22:20:05.427Z,6.40
2018-06-11T22:22:32.884Z,5.50
2018-06-11T22:25:00.327Z,5.30
2018-06-11T22:27:27.710Z,4.83
2018-06-11T22:29:55.287Z,5.50
2018-06-11T22:32:22.733Z,5.97
2018-06-11T22:34:50.221Z,6.17
2018-06-11T22:37:17.655Z,6.20
2018-06-11T22:39:45.086Z,6.80
2018-06-11T22:42:12.570Z,5.90
2018-06-11T22:44:40.314Z,6.13
2018-06-11T22:47:07.794Z,7.53
2018-06-11T22:49:35.249Z,7.70
2018-06-11T22:52:02.697Z,7.00
2018-06-11T22:54:30.162Z,7.93
2018-06-11T22:56:57.614Z,8.50
2018-06-11T22:59:25.065Z,7.93
2018-06-11T23:01:52.507Z,9.30
2018-06-11T23:04:19.986Z,8.10
2018-06-11T23:06:47.411Z,7.60
2018-06-11T23:09:14.865Z,7.67
2018-06-11T23:11:42.341Z,7.83
2018-06-11T23:14:09.728Z,8.63
2018-06-11T23:16:37.283Z,7.57
2018-06-11T23:19:04.673Z,7.87
2018-06-11T23:21:32.052Z,8.00
2018-06-11T23:23:59.771Z,8.20
2018-06-11T23:26:27.111Z,8.03
2018-06-11T23:28:54.601Z,7.67
2018-06-11T23:31:22.004Z,8.20
2018-06-11T23:33:49.395Z,7.63
2018-06-11T23:36:16.792Z,7.47
2018-06-11T23:38:44.366Z,7.93
2018-06-11T23:41:11.800Z,8.30
2018-06-11T23:43:39.187Z,7.50
2018-06-11T23:46:06.563Z,8.23
2018-06-11T23:48:34.010Z,7.53
2018-06-11T23:51:01.712Z,6.60
2018-06-11T23:53:29.092Z,7.43
2018-06-11T23:55:56.498Z,7.40
2018-06-11T23:58:24.077Z,8.47
